createdAt,value
2022-11-02T00:00:43.957Z,32.00
2022-11-02T00:03:47.179Z,32.00
2022-11-02T00:06:50.396Z,30.25
2022-11-02T00:09:53.517Z,30.00
2022-11-02T00:12:58.217Z,30.60
2022-11-02T00:16:03.589Z,32.00
2022-11-02T00:19:09.479Z,29.00
2022-11-02T00:22:12.751Z,28.00
2022-11-02T00:25:19.581Z,32.00
2022-11-02T00:28:24.612Z,30.25
2022-11-02T00:31:28.051Z,30.00
2022-11-02T00:34:31.631Z,32.00
2022-11-02T00:37:34.912Z,31.75
2022-11-02T00:40:38.282Z,32.00
2022-11-02T00:43:44.093Z,32.60
2022-11-02T00:46:47.391Z,31.50
2022-11-02T00:49:51.054Z,30.75
2022-11-02T00:52:54.539Z,31.60
2022-11-02T00:55:57.775Z,28.40
2022-11-02T00:59:03.852Z,30.00
2022-11-02T01:02:08.388Z,27.60
2022-11-02T01:05:12.452Z,25.80
2022-11-02T01:08:16.467Z,27.40
2022-11-02T01:11:21.996Z,27.25
2022-11-02T01:14:28.450Z,24.80
2022-11-02T01:17:31.611Z,22.60
2022-11-02T01:20:34.818Z,25.40
2022-11-02T01:23:39.351Z,24.75
2022-11-02T01:26:43.394Z,23.00
2022-11-02T01:29:48.963Z,21.00
2022-11-02T01:32:52.212Z,24.40
2022-11-02T01:35:57.635Z,23.00
2022-11-02T01:39:01.154Z,22.60
2022-11-02T01:42:04.699Z,21.60
2022-11-02T01:45:12.707Z,20.25
2022-11-02T01:48:16.402Z,26.40
2022-11-02T01:51:23.591Z,24.25
2022-11-02T01:54:30.523Z,24.00
2022-11-02T01:57:34.880Z,24.60
2022-11-02T02:00:40.375Z,25.00
2022-11-02T02:03:45.016Z,27.00
2022-11-02T02:06:50.679Z,27.00
2022-11-02T02:09:56.821Z,26.20
2022-11-02T02:13:00.223Z,25.60
2022-11-02T02:16:16.009Z,26.25
2022-11-02T02:19:40.171Z,24.80
2022-11-02T02:22:56.717Z,23.60
2022-11-02T02:26:39.374Z,24.00
2022-11-02T02:29:53.957Z,26.00
2022-11-02T02:32:59.764Z,28.00
2022-11-02T02:36:11.797Z,24.00
2022-11-02T02:39:22.974Z,23.40
2022-11-02T02:42:33.545Z,21.60
2022-11-02T02:45:41.878Z,25.00
2022-11-02T02:48:48.001Z,25.80
2022-11-02T02:51:52.807Z,25.00
2022-11-02T02:55:00.640Z,23.00
2022-11-02T02:58:07.317Z,24.60
2022-11-02T03:01:16.169Z,24.00
2022-11-02T03:04:19.993Z,24.00
2022-11-02T03:07:31.071Z,22.25
2022-11-02T03:10:46.873Z,23.00
2022-11-02T03:14:13.084Z,23.20
2022-11-02T03:17:20.886Z,24.00
2022-11-02T03:20:40.772Z,23.00
2022-11-02T03:23:53.574Z,23.00
2022-11-02T03:27:12.485Z,23.00
2022-11-02T03:30:19.794Z,25.40
2022-11-02T03:33:31.539Z,23.00
2022-11-02T03:36:41.738Z,24.20
2022-11-02T03:39:50.761Z,24.00
2022-11-02T03:42:55.636Z,23.40
2022-11-02T03:46:02.191Z,23.00
2022-11-02T03:49:12.272Z,23.40
2022-11-02T03:52:20.516Z,24.40
2022-11-02T03:55:31.296Z,23.40
2022-11-02T03:58:36.774Z,25.00
2022-11-02T04:01:44.453Z,22.60
2022-11-02T04:04:53.890Z,20.20
2022-11-02T04:08:18.555Z,23.00
2022-11-02T04:11:39.276Z,25.00
2022-11-02T04:14:48.015Z,25.00
2022-11-02T04:18:11.735Z,22.50
2022-11-02T04:21:16.658Z,23.00
2022-11-02T04:24:36.318Z,25.00
2022-11-02T04:27:39.848Z,21.40
2022-11-02T04:30:44.555Z,21.00
2022-11-02T04:33:47.886Z,20.60
2022-11-02T04:36:54.826Z,22.25
2022-11-02T04:39:57.276Z,20.40
2022-11-02T04:43:00.625Z,20.40
2022-11-02T04:46:04.441Z,22.00
2022-11-02T04:49:09.692Z,19.00
2022-11-02T04:52:16.017Z,22.00
2022-11-02T04:55:24.825Z,21.00
2022-11-02T04:58:29.688Z,20.00
2022-11-02T05:01:33.718Z,21.00
2022-11-02T05:04:38.154Z,21.60
2022-11-02T05:07:42.798Z,20.60
2022-11-02T05:10:46.133Z,21.40
2022-11-02T05:13:50.038Z,24.00
2022-11-02T05:16:54.404Z,20.80
2022-11-02T05:19:57.726Z,21.00
2022-11-02T05:23:02.953Z,23.50
2022-11-02T05:26:10.258Z,21.20
2022-11-02T05:29:16.492Z,18.60
2022-11-02T05:32:19.924Z,19.00
2022-11-02T05:35:24.117Z,21.40
2022-11-02T05:38:29.854Z,21.00
2022-11-02T05:41:35.819Z,19.60
2022-11-02T05:44:39.097Z,18.50
2022-11-02T05:47:42.438Z,21.00
2022-11-02T05:50:45.674Z,21.00
2022-11-02T05:53:50.269Z,20.00
2022-11-02T05:56:53.508Z,21.20
2022-11-02T05:59:56.826Z,18.00
2022-11-02T06:03:00.480Z,22.00
2022-11-02T06:06:07.203Z,19.00
2022-11-02T06:09:11.945Z,19.75
2022-11-02T06:12:15.818Z,24.00
2022-11-02T06:15:19.096Z,18.75
2022-11-02T06:18:22.692Z,21.00
2022-11-02T06:21:25.948Z,20.00
2022-11-02T06:24:30.735Z,21.00
2022-11-02T06:27:33.912Z,21.00
2022-11-02T06:30:37.771Z,21.00
2022-11-02T06:33:40.953Z,18.80
2022-11-02T06:36:44.200Z,21.20
2022-11-02T06:39:48.810Z,21.00
2022-11-02T06:43:15.374Z,21.00
2022-11-02T06:46:19.597Z,17.50
2022-11-02T06:49:23.630Z,21.00
2022-11-02T06:52:27.039Z,20.00
2022-11-02T06:55:31.649Z,18.00
2022-11-02T06:58:34.857Z,19.50
2022-11-02T07:01:38.212Z,21.40
2022-11-02T07:04:44.545Z,18.00
2022-11-02T07:07:49.485Z,20.00
2022-11-02T07:10:54.344Z,21.00
2022-11-02T07:13:57.725Z,20.00
2022-11-02T07:17:01.406Z,22.50
2022-11-02T07:20:05.720Z,20.00
2022-11-02T07:23:09.569Z,19.00
2022-11-02T07:26:14.729Z,18.60
2022-11-02T07:29:18.353Z,19.00
2022-11-02T07:32:21.597Z,20.60
2022-11-02T07:35:25.785Z,19.00
2022-11-02T07:38:29.042Z,18.60
2022-11-02T07:41:33.608Z,20.00
2022-11-02T07:44:36.789Z,19.00
2022-11-02T07:47:44.038Z,20.25
2022-11-02T07:50:47.324Z,19.40
2022-11-02T07:53:50.558Z,19.00
2022-11-02T07:56:55.377Z,18.60
2022-11-02T07:59:58.768Z,18.00
2022-11-02T08:03:04.134Z,17.20
2022-11-02T08:06:08.182Z,18.00
2022-11-02T08:09:11.654Z,18.00
2022-11-02T08:12:16.376Z,17.00
2022-11-02T08:15:19.640Z,16.00
2022-11-02T08:18:24.751Z,19.00
2022-11-02T08:21:27.918Z,17.00
2022-11-02T08:24:31.119Z,17.00
2022-11-02T08:27:36.033Z,18.00
2022-11-02T08:30:40.085Z,18.00
2022-11-02T08:33:43.355Z,17.00
2022-11-02T08:36:47.066Z,17.00
2022-11-02T08:39:50.279Z,15.00
2022-11-02T08:42:58.760Z,15.00
2022-11-02T08:46:14.749Z,15.60
2022-11-02T08:49:19.139Z,14.33
2022-11-02T08:52:22.415Z,17.50
2022-11-02T08:55:26.036Z,15.00
2022-11-02T08:58:30.753Z,15.25
2022-11-02T09:01:34.494Z,14.00
2022-11-02T09:04:37.876Z,13.80
2022-11-02T09:07:41.378Z,14.00
2022-11-02T09:10:45.289Z,13.00
2022-11-02T09:13:54.245Z,12.00
2022-11-02T09:16:59.900Z,14.00
2022-11-02T09:20:03.127Z,12.00
2022-11-02T09:23:06.871Z,15.00
2022-11-02T09:26:10.153Z,12.00
2022-11-02T09:29:14.783Z,15.00
2022-11-02T09:32:18.025Z,13.00
2022-11-02T09:35:21.239Z,12.40
2022-11-02T09:38:24.494Z,11.00
2022-11-02T09:41:36.026Z,12.60
2022-11-02T09:44:50.934Z,11.00
2022-11-02T09:48:19.680Z,12.00
2022-11-02T09:51:27.331Z,10.00
2022-11-02T09:54:36.001Z,11.00
2022-11-02T09:57:41.320Z,9.25
2022-11-02T10:00:54.214Z,8.00
2022-11-02T10:04:14.987Z,7.00
2022-11-02T10:07:31.128Z,6.75
2022-11-02T10:10:38.151Z,6.50
2022-11-02T10:13:50.057Z,5.80
2022-11-02T10:17:03.820Z,6.00
2022-11-02T10:20:16.243Z,6.80
2022-11-02T10:23:25.947Z,8.00
2022-11-02T10:26:33.857Z,7.00
2022-11-02T10:29:45.744Z,7.00
2022-11-02T10:32:54.011Z,8.00
2022-11-02T10:36:19.157Z,8.00
2022-11-02T10:39:34.191Z,6.00
2022-11-02T10:42:52.821Z,7.00
2022-11-02T10:46:14.698Z,8.00
2022-11-02T10:49:35.500Z,6.67
2022-11-02T10:52:41.003Z,6.00
2022-11-02T10:55:53.237Z,5.60
2022-11-02T10:59:04.368Z,5.40
2022-11-02T11:02:13.571Z,6.00
2022-11-02T11:05:21.213Z,6.00
2022-11-02T11:08:43.123Z,7.40
2022-11-02T11:11:55.360Z,5.60
2022-11-02T11:21:50.697Z,6.00
2022-11-02T11:24:54.157Z,5.00
2022-11-02T11:27:58.995Z,4.00
2022-11-02T11:31:09.799Z,5.00
2022-11-02T11:34:26.347Z,4.00
2022-11-02T11:37:31.716Z,5.00
2022-11-02T11:40:39.914Z,5.50
2022-11-02T11:43:45.589Z,5.00
2022-11-02T11:46:51.822Z,5.00
2022-11-02T11:50:18.292Z,5.00
2022-11-02T11:53:24.529Z,5.00
2022-11-02T11:56:27.839Z,7.00
2022-11-02T11:59:45.252Z,6.00
2022-11-02T12:03:04.549Z,5.00
2022-11-02T12:06:21.057Z,4.00
2022-11-02T12:09:35.992Z,5.00
2022-11-02T12:13:07.718Z,5.60
2022-11-02T12:16:20.529Z,3.25
2022-11-02T12:19:35.358Z,4.00
2022-11-02T12:22:48.401Z,4.00
2022-11-02T12:26:03.317Z,5.00
2022-11-02T12:29:24.110Z,4.00
2022-11-02T12:32:43.625Z,5.00
2022-11-02T12:36:06.168Z,6.00
2022-11-02T12:39:11.686Z,5.00
2022-11-02T12:42:27.212Z,5.00
2022-11-02T12:45:47.618Z,6.00
2022-11-02T12:49:01.332Z,6.00
2022-11-02T12:52:19.315Z,5.00
2022-11-02T12:55:28.514Z,4.00
2022-11-02T12:58:38.453Z,6.00
2022-11-02T13:01:47.160Z,6.00
2022-11-02T13:04:57.459Z,5.20
2022-11-02T13:08:08.514Z,7.75
2022-11-02T13:11:16.769Z,6.00
2022-11-02T13:14:24.066Z,6.40
2022-11-02T13:17:31.716Z,6.00
2022-11-02T13:20:41.919Z,4.00
2022-11-02T13:23:50.764Z,4.60
2022-11-02T13:26:57.614Z,5.00
2022-11-02T13:30:17.176Z,5.00
2022-11-02T13:33:26.471Z,6.00
2022-11-02T13:36:29.986Z,6.50
2022-11-02T13:39:39.347Z,4.00
2022-11-02T13:43:04.101Z,5.00
2022-11-02T13:46:30.423Z,5.00
2022-11-02T13:49:37.786Z,5.00
2022-11-02T13:52:45.935Z,4.00
2022-11-02T13:55:55.795Z,6.40
2022-11-02T13:59:03.465Z,5.80
2022-11-02T14:02:15.961Z,4.80
2022-11-02T14:05:27.282Z,4.60
2022-11-02T14:08:37.113Z,7.60
2022-11-02T14:11:48.992Z,5.00
2022-11-02T14:15:25.444Z,7.60
2022-11-02T14:18:32.252Z,8.20
2022-11-02T14:21:43.092Z,9.00
2022-11-02T14:25:06.475Z,5.80
2022-11-02T14:28:42.825Z,9.20
2022-11-02T14:32:00.423Z,9.00
2022-11-02T14:35:18.193Z,8.00
2022-11-02T14:38:48.210Z,12.00
2022-11-02T14:42:24.521Z,9.00
2022-11-02T14:45:44.469Z,10.40
2022-11-02T14:48:51.023Z,9.40
2022-11-02T14:52:04.562Z,10.40
2022-11-02T14:55:28.769Z,9.50
2022-11-02T14:58:36.539Z,9.00
2022-11-02T15:01:52.654Z,8.00
2022-11-02T15:04:58.753Z,9.60
2022-11-02T15:08:06.877Z,8.80
2022-11-02T15:11:49.565Z,11.60
2022-11-02T15:15:00.293Z,11.00
2022-11-02T15:18:35.594Z,10.00
2022-11-02T15:21:39.401Z,11.00
2022-11-02T15:24:45.720Z,9.00
2022-11-02T15:27:52.665Z,9.20
2022-11-02T15:30:59.300Z,8.00
2022-11-02T15:34:05.522Z,9.20
2022-11-02T15:37:13.789Z,10.00
2022-11-02T15:40:23.986Z,10.00
2022-11-02T15:43:52.806Z,7.00
2022-11-02T15:47:05.378Z,9.20
2022-11-02T15:50:20.344Z,10.00
2022-11-02T15:53:47.772Z,10.00
2022-11-02T15:57:04.842Z,9.40
2022-11-02T16:00:16.452Z,11.00
2022-11-02T16:03:19.727Z,10.00
2022-11-02T16:06:28.421Z,9.00
2022-11-02T16:09:34.661Z,9.20
2022-11-02T16:12:39.353Z,7.60
2022-11-02T16:15:43.656Z,10.25
2022-11-02T16:18:51.138Z,11.60
2022-11-02T16:21:59.985Z,12.60
2022-11-02T16:25:11.800Z,13.40
2022-11-02T16:28:21.647Z,14.00
2022-11-02T16:31:30.878Z,13.00
2022-11-02T16:34:34.848Z,11.20
2022-11-02T16:37:38.222Z,11.40
2022-11-02T16:40:45.722Z,12.00
2022-11-02T16:43:51.247Z,13.00
2022-11-02T16:46:58.366Z,12.00
2022-11-02T16:50:01.710Z,12.25
2022-11-02T16:53:05.017Z,12.00
2022-11-02T16:56:27.592Z,13.40
2022-11-02T16:59:32.623Z,12.80
2022-11-02T17:02:38.779Z,11.80
2022-11-02T17:05:44.038Z,15.00
2022-11-02T17:08:53.426Z,13.00
2022-11-02T17:11:59.725Z,11.00
2022-11-02T17:15:16.495Z,13.80
2022-11-02T17:18:28.578Z,11.75
2022-11-02T17:21:32.204Z,14.40
2022-11-02T17:24:36.577Z,15.00
2022-11-02T17:27:42.392Z,16.00
2022-11-02T17:30:50.476Z,14.00
2022-11-02T17:33:54.413Z,20.40
2022-11-02T17:36:57.846Z,17.00
2022-11-02T17:40:02.769Z,17.00
2022-11-02T17:43:05.313Z,16.00
2022-11-02T17:46:10.854Z,16.40
2022-11-02T17:49:14.065Z,20.00
2022-11-02T17:52:17.546Z,18.60
2022-11-02T17:55:23.205Z,18.20
2022-11-02T17:58:26.466Z,21.60
2022-11-02T18:01:31.207Z,22.40
2022-11-02T18:04:34.576Z,22.80
2022-11-02T18:07:37.888Z,21.00
2022-11-02T18:10:42.913Z,21.00
2022-11-02T18:13:46.114Z,20.25
2022-11-02T18:16:52.860Z,20.60
2022-11-02T18:19:56.253Z,21.40
2022-11-02T18:23:01.221Z,21.80
2022-11-02T18:26:04.623Z,23.50
2022-11-02T18:29:07.942Z,21.00
2022-11-02T18:32:12.499Z,21.80
2022-11-02T18:35:17.773Z,23.00
2022-11-02T18:38:23.804Z,20.40
2022-11-02T18:41:31.089Z,18.20
2022-11-02T18:44:34.302Z,21.00
2022-11-02T18:47:39.385Z,22.25
2022-11-02T18:50:42.637Z,23.00
2022-11-02T18:53:45.838Z,22.50
2022-11-02T18:56:49.063Z,21.75
2022-11-02T18:59:52.655Z,21.00
2022-11-02T19:02:57.295Z,21.60
2022-11-02T19:06:18.204Z,21.00
2022-11-02T19:09:23.632Z,24.25
2022-11-02T19:12:29.738Z,21.00
2022-11-02T19:15:39.782Z,24.00
2022-11-02T19:18:46.942Z,21.00
2022-11-02T19:21:51.089Z,22.00
2022-11-02T19:24:54.755Z,23.00
2022-11-02T19:27:58.044Z,24.00
2022-11-02T19:31:05.901Z,23.00
2022-11-02T19:34:10.779Z,19.00
2022-11-02T19:37:14.937Z,25.00
2022-11-02T19:40:18.505Z,20.80
2022-11-02T19:43:21.985Z,23.00
2022-11-02T19:46:26.234Z,22.00
2022-11-02T19:49:30.865Z,20.50
2022-11-02T19:52:35.825Z,21.40
2022-11-02T19:55:39.052Z,21.00
2022-11-02T19:58:44.171Z,21.40
2022-11-02T20:01:50.160Z,22.00
2022-11-02T20:04:54.825Z,23.60
2022-11-02T20:07:58.075Z,22.60
2022-11-02T20:11:06.902Z,23.50
2022-11-02T20:14:10.216Z,20.00
2022-11-02T20:20:38.079Z,20.40
2022-11-02T20:23:42.631Z,23.50
2022-11-02T20:26:45.869Z,20.00
2022-11-02T20:29:49.341Z,23.00
2022-11-02T20:32:52.804Z,21.40
2022-11-02T20:35:57.391Z,25.00
2022-11-02T20:39:00.925Z,22.40
2022-11-02T20:42:04.340Z,24.00
2022-11-02T20:45:09.143Z,23.00
2022-11-02T20:48:12.830Z,23.80
2022-11-02T20:51:18.252Z,22.60
2022-11-02T20:54:22.413Z,22.80
2022-11-02T20:57:25.617Z,24.00
2022-11-02T21:00:28.920Z,23.00
2022-11-02T21:03:32.680Z,24.50
2022-11-02T21:06:37.354Z,26.00
2022-11-02T21:09:40.667Z,22.60
2022-11-02T21:13:01.517Z,24.40
2022-11-02T21:16:05.047Z,24.50
2022-11-02T21:19:08.271Z,23.40
2022-11-02T21:22:13.408Z,22.50
2022-11-02T21:25:16.785Z,24.00
2022-11-02T21:28:20.012Z,22.50
2022-11-02T21:31:23.296Z,24.40
2022-11-02T21:34:26.679Z,22.00
2022-11-02T21:37:31.761Z,22.60
2022-11-02T21:40:35.265Z,23.25
2022-11-02T21:43:39.420Z,24.60
2022-11-02T21:46:42.875Z,21.00
2022-11-02T21:49:46.043Z,22.40
2022-11-02T21:52:50.651Z,24.40
2022-11-02T21:55:58.429Z,25.20
2022-11-02T21:59:01.905Z,21.20
2022-11-02T22:02:05.229Z,24.00
2022-11-02T22:05:09.260Z,24.00
2022-11-02T22:08:31.765Z,21.40
2022-11-02T22:11:36.574Z,19.60
2022-11-02T22:14:41.012Z,23.00
2022-11-02T22:17:49.658Z,22.00
2022-11-02T22:20:58.086Z,23.40
2022-11-02T22:24:03.698Z,22.40
2022-11-02T22:27:06.936Z,24.40
2022-11-02T22:30:10.998Z,20.00
2022-11-02T22:33:14.235Z,20.00
2022-11-02T22:36:20.168Z,20.00
2022-11-02T22:39:24.083Z,20.80
2022-11-02T22:42:27.564Z,19.50
2022-11-02T22:45:30.993Z,20.60
2022-11-02T22:48:34.894Z,19.00
2022-11-02T22:51:39.607Z,22.00
2022-11-02T22:54:44.200Z,21.40
2022-11-02T22:57:47.509Z,20.00
2022-11-02T23:00:51.027Z,21.00
2022-11-02T23:03:54.754Z,22.00
2022-11-02T23:06:58.055Z,22.00
2022-11-02T23:10:22.593Z,20.00
2022-11-02T23:13:26.492Z,21.50
2022-11-02T23:16:31.417Z,22.40
2022-11-02T23:19:37.396Z,21.60
2022-11-02T23:22:58.543Z,21.50
2022-11-02T23:26:03.175Z,22.80
2022-11-02T23:29:24.174Z,22.00
2022-11-02T23:32:27.447Z,23.00
2022-11-02T23:35:50.113Z,18.80
2022-11-02T23:39:10.830Z,23.00
2022-11-02T23:42:15.480Z,21.00
2022-11-02T23:45:18.727Z,20.60
2022-11-02T23:48:22.027Z,21.00
2022-11-02T23:51:42.622Z,21.20
2022-11-02T23:55:03.327Z,23.00
2022-11-02T23:58:08.419Z,22.60
